Aeroporto :
LOGIN :

Iscrizione | Disclaimer

   EN    FR    IT 

 










Sommario :    VFR   VFR Marginale   IFR   IFR Intensivo   IFR Molto Intensivo
Visibilità : 
Base nubi : 
>= 8 km
>= 3000ft
5 / 8 km
1000 / 3000 ft
1500m / 5 km
500 / 1000 ft
800 / 1500m
200 / 500 ft
< 800m
< 200 ft
Simboli :   Temporali  Nebbia  Neve Forte  Precipitazioni Forti  Vento > 20 kt
SIGMETs :   Varie  Temporali  Ghiacco  Turbolenza  Onda orograficha  Ceneri Vulcaniche







- Altitudine del aeroporto : 83 ft
- Codice IATA : LHR
- Carte del aeroporto


EGLL - London Heathrow

ULTIMO METAR :
  • 172220Z AUTO 23010KT 9999 NCD 17/13 Q1005

METARs OBSOLETI :
  • 172150Z AUTO 22009KT 9999 NCD 17/13 Q1005 NOSIG
  • 172120Z AUTO 21009KT 170V250 9999 NCD 17/13 Q1005
  • 172050Z AUTO 22010KT 9999 NCD 17/13 Q1006 NOSIG
  • 172020Z AUTO 22012KT 9999 NCD 17/13 Q1005 NOSIG
  • 171950Z AUTO 22012KT 9999 NCD 18/13 Q1005

TAF TAF EGLL
Valido dal 17 a 18 ore il 19 a 00 ore UTC


171658Z 1718/1824 22008KT 9999 SCT040
PROB30
TEMPO 1800/1804 8000 -RA
TEMPO 1810/1817 26015G25KT 7000 SHRA
Nessun NOTAM noto per questo aeroporto.



MetMap, La meteo Aeronautica in un colpo d'occhio ! - Copyright ORBIFLY Dicembre 2007 - Disclaimer

ORBIFLY MET'MAP TEAM :

Programmazione e sviluppo : Alexandra Zaïnal
Concezione e sviluppo : Baudouin d'Aumeries
Co-Programmazione e sviluppo : Marc-Olivier Méhu
Supporto tecnico e logistico : Manuel Goepfert
Aiuto per la traduzione : Arnaldo La Scala

Contatto : metmap@orbifly.com




FONTI E CREDITI :

   NOAA